Latest Weather Observations for Truscott

IDW60801

Issued at 1:03 pm WST Thursday 21 September 2017 (issued every 30 minutes, with the page automatically refreshed every 10 minutes)

About weather observations | Map of weather stations | Latest weather observations for WA | Other Formats
Station Details ID: 001020 Name: TRUSCOTT Lat: -14.09 Lon: 126.39 Height: 51.0 m
Data from the previous 72 hours. | See also: Recent months at Truscott
Date/Time
WST
Temp
°C
App
Temp
°C
Dew
Point
°C
Rel
Hum
%
Delta-T
°C
Wind Press
QNH
hPa
Press
MSL
hPa
Rain since
9am
mm
Dir  Spd
km/h
Gust
km/h
Spd
kts
Gust
kts
21/01:00pm 29.9 29.4 19.0 52 7.1 N 20 30 11 16 1010.1 1009.8 0.0
21/12:30pm 30.9 29.9 17.9 45 8.3 N 20 32 11 17 1010.3 1010.0 0.0
21/12:00pm 31.0 30.2 18.4 47 8.1 N 20 32 11 17 1010.6 1010.3 0.0
21/11:30am 31.3 30.3 17.9 44 8.6 N 20 32 11 17 1011.1 1010.8 0.0
21/11:00am 32.4 29.8 13.1 31 11.6 N 19 32 10 17 1011.5 1011.2 0.0
21/10:30am 34.4 33.9 12.7 27 13.1 N 7 11 4 6 1011.6 1011.3 0.0
21/10:00am 33.7 32.8 12.7 28 12.6 NW 9 17 5 9 1012.0 1011.7 0.0
21/09:30am 32.9 33.1 13.0 30 12.0 WSW 4 11 2 6 1012.4 1012.1 0.0
21/09:00am 31.3 29.9 12.2 31 11.3 W 11 15 6 8 1012.9 1012.6 0.0
21/08:30am 30.3 29.3 12.2 33 10.6 SW 9 15 5 8 1013.0 1012.7 0.0
21/08:00am 29.3 27.6 12.3 35 10.0 SSW 13 19 7 10 1013.2 1012.9 0.0
21/07:30am 27.9 26.5 13.4 40 8.6 SW 13 19 7 10 1013.2 1012.9 0.0
21/07:00am 26.3 26.0 15.4 51 6.6 SW 11 13 6 7 1013.0 1012.7 0.0
21/06:30am 24.6 25.9 16.1 59 5.2 SW 4 9 2 5 1012.9 1012.6 0.0
21/06:00am 23.4 24.4 16.4 64 4.3 SSW 6 9 3 5 1012.6 1012.3 0.0
21/05:30am 22.2 23.3 16.5 70 3.5 SSW 6 9 3 5 1012.3 1012.0 0.0
21/05:00am 22.9 24.4 16.7 68 3.8 SSW 4 7 2 4 1012.1 1011.8 0.0
21/04:30am 23.4 24.2 17.2 68 3.8 SW 9 15 5 8 1011.7 1011.4 0.0
21/04:00am 23.4 23.6 17.6 70 3.6 SW 13 17 7 9 1011.6 1011.3 0.0
21/03:30am 23.6 24.3 18.0 71 3.5 SW 11 17 6 9 1011.3 1011.0 0.0
21/03:00am 23.9 24.8 18.5 72 3.4 SSW 11 15 6 8 1011.2 1010.9 0.0
21/02:30am 23.7 25.5 19.6 78 2.6 SW 9 15 5 8 1011.0 1010.7 0.0
21/02:00am 23.9 24.9 20.2 80 2.4 SW 15 20 8 11 1011.1 1010.8 0.0
21/01:30am 24.2 25.4 20.7 81 2.3 SW 15 19 8 10 1011.3 1011.0 0.0
21/01:00am 24.2 26.0 21.1 83 2.0 SW 13 19 7 10 1011.4 1011.1 0.0
21/12:30am 24.1 26.5 21.6 86 1.7 SW 11 13 6 7 1011.6 1011.3 0.0
21/12:00am 24.4 27.0 21.9 86 1.7 SW 11 13 6 7 1011.9 1011.6 0.0
 
Date/Time
WST
Temp
°C
App
Temp
°C
Dew
Point
°C
Rel
Hum
%
Delta-T
°C
Wind Press
QNH
hPa
Press
MSL
hPa
Rain since
9am
mm
Dir  Spd
km/h
Gust
km/h
Spd
kts
Gust
kts
20/11:30pm 24.4 27.6 22.3 88 1.4 SW 9 13 5 7 1012.2 1011.9 0.0
20/11:00pm 24.8 27.9 22.1 85 1.8 WSW 9 13 5 7 1012.2 1011.9 0.0
20/10:30pm 24.8 27.5 21.3 81 2.3 WSW 9 13 5 7 1012.3 1012.0 0.0
20/10:00pm 25.0 27.9 21.1 79 2.6 SW 7 9 4 5 1012.4 1012.1 0.0
20/09:30pm 25.3 27.9 21.2 78 2.7 SW 9 11 5 6 1012.6 1012.3 0.0
20/09:00pm 25.4 28.2 20.9 76 3.0 WSW 7 9 4 5 1012.6 1012.3 0.0
20/08:30pm 25.2 28.6 21.7 81 2.3 WSW 6 7 3 4 1012.6 1012.3 0.0
20/08:00pm 25.4 28.9 21.9 81 2.3 WSW 6 7 3 4 1012.4 1012.1 0.0
20/07:30pm 25.2 29.7 21.5 80 2.5 CALM 0 0 0 0 1012.0 1011.7 0.0
20/07:00pm 25.6 29.2 21.3 77 2.9 WNW 4 7 2 4 1011.7 1011.4 0.0
20/06:30pm 26.1 28.8 20.7 72 3.6 WNW 7 9 4 5 1011.4 1011.1 0.0
20/06:00pm 26.5 29.1 20.1 68 4.2 NNW 6 9 3 5 1011.1 1010.8 0.0
20/05:30pm 27.1 28.8 19.4 62 5.0 NW 9 11 5 6 1010.8 1010.5 0.0
20/05:00pm 28.1 28.8 17.9 54 6.5 NNW 11 15 6 8 1010.7 1010.4 0.0
20/04:30pm 28.8 28.8 17.3 49 7.3 NW 13 19 7 10 1010.5 1010.2 0.0
20/04:00pm 29.7 29.5 16.8 45 8.1 NNW 13 17 7 9 1010.3 1010.0 0.0
20/03:30pm 29.9 28.7 16.0 43 8.6 NNW 17 24 9 13 1010.6 1010.3 0.0
20/03:00pm 30.0 29.0 15.7 42 8.9 NNW 15 22 8 12 1010.7 1010.4 0.0
20/02:30pm 30.2 28.8 15.5 41 9.1 NNW 17 24 9 13 1010.9 1010.6 0.0
20/02:00pm 31.0 29.7 15.8 40 9.5 NW 17 22 9 12 1011.2 1010.9 0.0
20/01:30pm 30.4 30.0 17.1 44 8.4 NW 15 22 8 12 1011.5 1011.2 0.0
20/01:00pm 31.7 29.6 12.5 31 11.4 NNW 15 24 8 13 1011.8 1011.5 0.0
20/12:30pm 31.2 29.3 13.0 33 10.9 NNW 15 24 8 13 1012.2 1011.9 0.0
20/12:00pm 31.5 29.1 12.8 32 11.1 NNW 17 22 9 12 1012.8 1012.5 0.0
20/11:30am 31.3 29.0 13.1 33 10.9 N 17 22 9 12 1013.1 1012.8 0.0
20/11:00am 31.6 29.9 12.4 31 11.4 N 13 22 7 12 1013.3 1013.0 0.0
20/10:30am 31.3 29.9 12.2 31 11.3 NNW 11 19 6 10 1013.6 1013.3 0.0
20/10:00am 31.3 31.6 16.1 40 9.5 NNE 9 17 5 9 1013.9 1013.6 0.0
20/09:30am 31.6 30.9 11.9 30 11.6 E 7 13 4 7 1014.3 1014.0 0.0
20/09:00am 29.8 30.1 15.1 40 9.0 E 7 11 4 6 1014.7 1014.4 0.0
20/08:30am 28.7 31.1 17.9 52 6.9 S 2 9 1 5 1014.8 1014.5 0.0
20/08:00am 26.8 28.9 18.9 62 5.1 ENE 6 11 3 6 1014.6 1014.3 0.0
20/07:30am 25.5 28.3 19.6 70 3.8 NW 4 7 2 4 1014.2 1013.9 0.0
20/07:00am 24.1 26.2 19.4 75 3.0 ENE 7 17 4 9 1013.9 1013.6 0.0
20/06:30am 22.8 24.6 18.8 78 2.5 SSW 7 13 4 7 1013.4 1013.1 0.0
20/06:00am 21.9 22.9 17.7 77 2.6 SW 9 17 5 9 1013.1 1012.8 0.0
20/05:30am 20.4 21.5 16.6 79 2.3 S 6 11 3 6 1012.8 1012.5 0.0
20/05:00am 19.6 21.6 17.9 90 1.0 SSW 4 9 2 5 1012.5 1012.2 0.0
20/04:30am 20.1 22.8 19.4 96 0.4 W 4 7 2 4 1012.4 1012.1 0.0
20/04:00am 19.6 22.3 18.6 94 0.6 NNE 2 7 1 4 1012.4 1012.1 0.0
20/03:30am 19.8 22.1 18.6 93 0.7 SW 4 9 2 5 1012.4 1012.1 0.0
20/03:00am 20.2 23.5 19.2 94 0.6 CALM 0 4 0 2 1011.9 1011.6 0.0
20/02:30am 20.9 23.4 19.9 94 0.6 NNE 6 11 3 6 1011.7 1011.4 0.0
20/02:00am 20.7 22.4 18.5 87 1.4 SSW 7 11 4 6 1011.8 1011.5 0.0
20/01:30am 21.9 24.1 19.5 86 1.5 SW 7 11 4 6 1012.0 1011.7 0.0
20/01:00am 22.0 23.5 18.8 82 2.0 SSW 9 13 5 7 1011.9 1011.6 0.0
20/12:30am 22.1 24.5 19.6 86 1.6 SW 6 13 3 7 1012.1 1011.8 0.0
20/12:00am 22.0 25.0 19.2 84 1.8 SW 2 7 1 4 1012.4 1012.1 0.0
 
Date/Time
WST
Temp
°C
App
Temp
°C
Dew
Point
°C
Rel
Hum
%
Delta-T
°C
Wind Press
QNH
hPa
Press
MSL
hPa
Rain since
9am
mm
Dir  Spd
km/h
Gust
km/h
Spd
kts
Gust
kts
19/11:30pm 21.9 24.5 19.3 85 1.7 SW 4 9 2 5 1012.6 1012.3 0.0
19/11:00pm 22.2 25.5 19.0 82 2.0 CALM 0 0 0 0 1013.0 1012.7 0.0
19/10:30pm 21.7 24.6 18.3 81 2.1 CALM 0 0 0 0 1013.3 1013.0 0.0
19/10:00pm 22.1 25.0 18.3 79 2.4 CALM 0 0 0 0 1013.4 1013.1 0.0
19/09:30pm 21.8 24.3 17.2 75 2.8 CALM 0 0 0 0 1013.4 1013.1 0.0
19/09:00pm 21.9 23.8 15.7 68 3.7 CALM 0 0 0 0 1013.3 1013.0 0.0
19/08:30pm 22.8 24.1 14.1 58 5.1 CALM 0 0 0 0 1013.2 1012.9 0.0
19/08:00pm 23.0 24.4 14.3 58 5.1 CALM 0 0 0 0 1013.2 1012.9 0.0
19/07:30pm 23.7 24.8 13.6 53 5.9 CALM 0 6 0 3 1013.0 1012.7 0.0
19/07:00pm 24.7 25.6 13.0 48 6.8 CALM 0 4 0 2 1012.7 1012.4 0.0
19/06:30pm 26.5 27.4 13.9 45 7.5 ENE 2 7 1 4 1012.2 1011.9 0.0
19/06:00pm 27.3 26.9 14.0 44 7.9 NE 9 19 5 10 1011.5 1011.2 0.0
19/05:30pm 28.2 26.4 12.1 37 9.4 NNE 13 20 7 11 1011.1 1010.8 0.0
19/05:00pm 29.5 27.2 10.6 31 10.8 NNE 13 20 7 11 1010.8 1010.5 0.0
19/04:30pm 30.5 27.8 10.5 29 11.4 NNE 15 24 8 13 1010.5 1010.2 0.0
19/04:00pm 29.8 28.5 15.9 43 8.6 N 17 26 9 14 1010.3 1010.0 0.0
19/03:30pm 30.6 27.9 13.0 34 10.5 N 19 26 10 14 1010.3 1010.0 0.0
19/03:00pm 31.3 28.4 12.2 31 11.3 N 19 30 10 16 1010.3 1010.0 0.0
19/02:30pm 31.7 29.3 13.9 34 10.8 N 19 28 10 15 1010.6 1010.3 0.0
19/02:00pm 32.0 29.4 13.2 31 11.3 NNE 19 28 10 15 1010.7 1010.4 0.0
19/01:30pm 32.8 28.8 11.9 28 12.3 N 24 37 13 20 1010.9 1010.6 0.0
19/01:00pm 36.2 30.2 -7.0 6 19.3 E 17 30 9 16 1011.1 1010.8 0.0
19/12:30pm 35.8 30.1 -3.5 8 18.5 E 17 26 9 14 1011.4 1011.1 0.0
19/12:00pm 35.4 29.7 -3.8 8 18.3 ENE 17 32 9 17 1011.8 1011.5 0.0
19/11:30am 35.1 29.9 -2.5 9 17.9 ENE 15 26 8 14 1012.3 1012.0 0.0
19/11:00am 34.7 28.7 -2.8 9 17.7 E 19 28 10 15 1013.0 1012.7 0.0
19/10:30am 34.4 28.9 0.9 12 16.8 E 19 30 10 16 1013.4 1013.1 0.0
19/10:00am 34.2 29.1 0.8 12 16.7 ESE 17 26 9 14 1013.9 1013.6 0.0
19/09:30am 33.6 29.0 -0.9 11 16.7 ESE 13 26 7 14 1014.2 1013.9 0.0
19/09:00am 31.8 29.0 6.8 21 13.6 S 11 19 6 10 1014.6 1014.3 0.0
19/08:30am 30.0 27.4 7.8 25 12.1 SSW 11 15 6 8 1014.8 1014.5 0.0
19/08:00am 28.1 26.4 9.9 32 10.2 SSW 9 11 5 6 1015.0 1014.7 0.0
19/07:30am 24.9 25.3 11.1 42 7.8 CALM 0 0 0 0 1015.0 1014.7 0.0
19/07:00am 21.5 23.1 14.9 66 3.9 CALM 0 0 0 0 1014.8 1014.5 0.0
19/06:30am 19.4 20.9 14.6 74 2.8 CALM 0 0 0 0 1014.6 1014.3 0.0
19/06:00am 19.5 20.9 15.4 77 2.4 SSW 2 7 1 4 1014.3 1014.0 0.0
19/05:30am 18.6 20.5 15.7 83 1.7 CALM 0 0 0 0 1014.0 1013.7 0.0
19/05:00am 19.3 21.4 16.3 83 1.8 CALM 0 0 0 0 1013.7 1013.4 0.0
19/04:30am 19.0 21.1 16.2 84 1.7 CALM 0 0 0 0 1013.6 1013.3 0.0
19/04:00am 18.7 20.1 16.5 87 1.3 SE 4 7 2 4 1013.4 1013.1 0.0
19/03:30am 18.9 20.6 16.3 85 1.6 SSE 2 6 1 3 1013.5 1013.2 0.0
19/03:00am 19.4 20.2 16.4 83 1.8 E 7 9 4 5 1013.4 1013.1 0.0
19/02:30am 21.3 22.2 16.5 74 2.9 ENE 7 11 4 6 1013.4 1013.1 0.0
19/02:00am 22.3 23.1 17.2 73 3.1 SW 9 15 5 8 1013.2 1012.9 0.0
19/01:30am 22.5 23.3 17.4 73 3.2 SSW 9 13 5 7 1013.4 1013.1 0.0
19/01:00am 22.6 23.0 18.2 76 2.8 SW 13 15 7 8 1013.8 1013.5 0.0
19/12:30am 22.6 24.9 19.9 85 1.7 SW 7 11 4 6 1014.2 1013.9 0.0
19/12:00am 21.3 24.8 19.6 90 1.1 CALM 0 0 0 0 1014.5 1014.2 0.0
 
Date/Time
WST
Temp
°C
App
Temp
°C
Dew
Point
°C
Rel
Hum
%
Delta-T
°C
Wind Press
QNH
hPa
Press
MSL
hPa
Rain since
9am
mm
Dir  Spd
km/h
Gust
km/h
Spd
kts
Gust
kts
18/11:30pm 21.8 25.4 19.7 88 1.3 CALM 0 0 0 0 1014.7 1014.4 0.0
18/11:00pm 22.0 25.5 19.5 86 1.6 CALM 0 0 0 0 1015.1 1014.8 0.0
18/10:30pm 22.1 25.5 19.3 84 1.8 CALM 0 0 0 0 1015.3 1015.0 0.0
18/10:00pm 22.3 25.5 18.9 81 2.2 CALM 0 0 0 0 1015.2 1014.9 0.0
18/09:30pm 22.4 25.5 18.6 79 2.4 CALM 0 0 0 0 1015.3 1015.0 0.0
18/09:00pm 22.5 25.2 17.8 75 2.9 CALM 0 0 0 0 1015.3 1015.0 0.0
18/08:30pm 22.9 25.3 17.1 70 3.6 CALM 0 0 0 0 1015.2 1014.9 0.0
18/08:00pm 23.8 25.6 17.3 67 4.0 N 4 6 2 3 1014.9 1014.6 0.0
18/07:30pm 24.2 26.3 17.2 65 4.3 NW 2 6 1 3 1014.6 1014.3 0.0
18/07:00pm 25.5 27.1 18.2 64 4.6 NW 7 9 4 5 1014.3 1014.0 0.0
18/06:30pm 25.5 26.5 16.9 59 5.3 NNW 7 11 4 6 1013.7 1013.4 0.0
18/06:00pm 25.8 26.3 15.5 53 6.3 N 7 9 4 5 1013.3 1013.0 0.0
18/05:30pm 26.7 27.0 16.0 52 6.6 N 9 15 5 8 1012.8 1012.5 0.0
18/05:00pm 27.8 27.0 14.1 43 8.2 N 11 17 6 9 1012.4 1012.1 0.0
18/04:30pm 28.5 26.8 12.4 37 9.4 N 13 20 7 11 1012.1 1011.8 0.0
18/04:00pm 29.0 26.9 12.4 36 9.7 NNW 15 20 8 11 1011.8 1011.5 0.0
18/03:30pm 29.5 27.7 13.3 37 9.6 NNW 15 20 8 11 1011.7 1011.4 0.0
18/03:00pm 30.9 27.4 8.6 25 12.4 N 17 24 9 13 1011.6 1011.3 0.0
18/02:30pm 30.4 27.9 12.3 33 10.7 N 17 26 9 14 1011.8 1011.5 0.0
18/02:00pm 31.3 27.2 10.1 27 12.1 N 22 32 12 17 1011.7 1011.4 0.0
18/01:30pm 32.7 27.3 4.5 17 14.8 NNE 22 33 12 18 1011.8 1011.5 0.0

Other Formats:

Comma delimited format used in spreadsheet applications
http://www.bom.gov.au/fwo/IDW60801/IDW60801.95101.axf

JavaScript Object Notation format (JSON) in row-major order
http://www.bom.gov.au/fwo/IDW60801/IDW60801.95101.json